createdAt,value
2018-08-19T00:00:46.456Z,18.65
2018-08-19T00:01:50.847Z,18.62
2018-08-19T00:02:56.362Z,18.64
2018-08-19T00:04:02.892Z,18.61
2018-08-19T00:05:07.391Z,18.65
2018-08-19T00:06:13.957Z,18.58
2018-08-19T00:07:18.450Z,18.58
2018-08-19T00:08:23.978Z,18.54
2018-08-19T00:09:30.466Z,18.59
2018-08-19T00:10:34.999Z,18.55
2018-08-19T00:11:41.493Z,18.57
2018-08-19T00:12:46.022Z,18.49
2018-08-19T00:13:51.519Z,18.55
2018-08-19T00:14:58.041Z,18.58
2018-08-19T00:16:02.580Z,18.57
2018-08-19T00:17:09.104Z,18.54
2018-08-19T00:18:13.600Z,18.52
2018-08-19T00:19:19.082Z,18.55
2018-08-19T00:20:25.607Z,18.52
2018-08-19T00:21:30.137Z,18.44
2018-08-19T00:22:36.667Z,18.49
2018-08-19T00:23:41.729Z,18.40
2018-08-19T00:24:46.680Z,18.46
2018-08-19T00:25:53.199Z,18.46
2018-08-19T00:26:57.724Z,18.37
2018-08-19T00:28:04.244Z,18.43
2018-08-19T00:29:08.756Z,18.36
2018-08-19T00:30:14.243Z,18.34
2018-08-19T00:31:20.778Z,18.29
2018-08-19T00:32:25.291Z,18.33
2018-08-19T00:33:31.824Z,18.31
2018-08-19T00:34:36.319Z,18.31
2018-08-19T00:35:41.812Z,18.22
2018-08-19T00:36:48.367Z,18.28
2018-08-19T00:37:52.889Z,18.28
2018-08-19T00:38:59.393Z,18.31
2018-08-19T00:40:03.911Z,18.24
2018-08-19T00:41:09.428Z,18.25
2018-08-19T00:42:15.943Z,18.17
2018-08-19T00:43:20.450Z,18.25
2018-08-19T00:44:26.996Z,18.17
2018-08-19T00:45:31.481Z,18.24
2018-08-19T00:46:36.971Z,18.15
2018-08-19T00:47:43.509Z,18.24
2018-08-19T00:48:48.008Z,18.15
2018-08-19T00:49:54.565Z,18.13
2018-08-19T00:50:59.040Z,18.17
2018-08-19T00:52:04.565Z,18.15
2018-08-19T00:53:11.104Z,18.17
2018-08-19T00:54:15.626Z,18.21
2018-08-19T00:55:22.095Z,18.18
2018-08-19T00:56:26.620Z,18.18
2018-08-19T00:57:32.145Z,18.13
2018-08-19T00:58:38.657Z,18.15
2018-08-19T00:59:43.162Z,18.12
2018-08-19T01:00:49.696Z,18.12
2018-08-19T01:01:54.230Z,18.13
2018-08-19T01:02:59.714Z,18.18
2018-08-19T01:04:06.228Z,18.12
2018-08-19T01:05:10.745Z,18.12
2018-08-19T01:06:17.256Z,18.06
2018-08-19T01:07:21.783Z,18.17
2018-08-19T01:08:27.284Z,18.06
2018-08-19T01:09:33.818Z,17.99
2018-08-19T01:10:38.329Z,18.15
2018-08-19T01:11:44.848Z,18.02
2018-08-19T01:12:49.341Z,18.02
2018-08-19T01:13:54.889Z,18.02
2018-08-19T01:15:01.380Z,18.07
2018-08-19T01:16:05.910Z,17.95
2018-08-19T01:17:12.421Z,18.02
2018-08-19T01:18:16.920Z,17.92
2018-08-19T01:19:22.460Z,17.99
2018-08-19T01:20:28.962Z,17.89
2018-08-19T01:21:33.475Z,18.02
2018-08-19T01:22:39.994Z,17.99
2018-08-19T01:23:44.517Z,17.97
2018-08-19T01:24:50.026Z,18.03
2018-08-19T01:25:56.557Z,18.02
2018-08-19T01:27:01.064Z,18.00
2018-08-19T01:28:07.603Z,17.94
2018-08-19T01:29:12.064Z,17.89
2018-08-19T01:30:17.593Z,18.00
2018-08-19T01:31:24.132Z,17.92
2018-08-19T01:32:28.629Z,17.91
2018-08-19T01:33:35.173Z,17.87
2018-08-19T01:34:39.672Z,17.87
2018-08-19T01:35:45.188Z,17.82
2018-08-19T01:36:51.692Z,17.92
2018-08-19T01:37:56.209Z,17.85
2018-08-19T01:39:02.715Z,17.82
2018-08-19T01:40:07.228Z,17.84
2018-08-19T01:41:12.733Z,17.87
2018-08-19T01:42:19.268Z,17.85
2018-08-19T01:43:23.768Z,17.89
2018-08-19T01:44:30.314Z,17.87
2018-08-19T01:45:34.816Z,17.82
2018-08-19T01:46:40.340Z,17.84
2018-08-19T01:47:46.863Z,17.85
2018-08-19T01:48:51.341Z,17.82
2018-08-19T01:49:57.892Z,17.81
2018-08-19T01:51:02.375Z,17.78
2018-08-19T01:52:07.955Z,17.74
2018-08-19T01:53:14.415Z,17.74
2018-08-19T01:54:18.930Z,17.74
2018-08-19T01:55:25.446Z,17.74
2018-08-19T01:56:29.951Z,17.73
2018-08-19T01:57:35.467Z,17.70
2018-08-19T01:58:42.005Z,17.69
2018-08-19T01:59:46.514Z,17.66
2018-08-19T02:00:53.023Z,17.63
2018-08-19T02:01:57.547Z,17.57
2018-08-19T02:03:03.067Z,17.57
2018-08-19T02:04:09.574Z,17.55
2018-08-19T02:05:14.081Z,17.57
2018-08-19T02:06:20.609Z,17.55
2018-08-19T02:07:25.104Z,17.59
2018-08-19T02:08:30.631Z,17.63
2018-08-19T02:09:37.145Z,17.57
2018-08-19T02:10:41.654Z,17.57
2018-08-19T02:11:48.182Z,17.62
2018-08-19T02:12:52.682Z,17.50
2018-08-19T02:13:58.226Z,17.59
2018-08-19T02:15:04.716Z,17.62
2018-08-19T02:16:09.224Z,17.59
2018-08-19T02:17:15.755Z,17.62
2018-08-19T02:18:20.258Z,17.66
2018-08-19T02:19:25.784Z,17.66
2018-08-19T02:20:32.275Z,17.57
2018-08-19T02:21:36.809Z,17.57
2018-08-19T02:22:43.326Z,17.50
2018-08-19T02:23:47.836Z,17.48
2018-08-19T02:24:53.352Z,17.50
2018-08-19T02:25:59.872Z,17.43
2018-08-19T02:27:04.399Z,17.46
2018-08-19T02:28:10.906Z,17.44
2018-08-19T02:29:15.397Z,17.50
2018-08-19T02:30:20.920Z,17.35
2018-08-19T02:31:27.464Z,17.40
2018-08-19T02:32:31.951Z,17.35
2018-08-19T02:33:38.487Z,17.33
2018-08-19T02:34:42.984Z,17.44
2018-08-19T02:35:48.490Z,17.35
2018-08-19T02:36:55.018Z,17.41
2018-08-19T02:37:59.526Z,17.44
2018-08-19T02:39:06.075Z,17.36
2018-08-19T02:40:10.562Z,17.40
2018-08-19T02:41:16.090Z,17.38
2018-08-19T02:42:22.610Z,17.40
2018-08-19T02:43:27.104Z,17.33
2018-08-19T02:44:33.621Z,17.26
2018-08-19T02:45:38.155Z,17.26
2018-08-19T02:46:43.632Z,17.28
2018-08-19T02:47:50.192Z,17.28
2018-08-19T02:48:54.681Z,17.30
2018-08-19T02:50:01.210Z,17.28
2018-08-19T02:51:05.715Z,17.26
2018-08-19T02:52:11.232Z,17.18
2018-08-19T02:53:17.750Z,17.22
2018-08-19T02:54:22.265Z,17.18
2018-08-19T02:55:28.774Z,17.20
2018-08-19T02:56:33.284Z,17.14
2018-08-19T02:57:38.786Z,17.14
2018-08-19T02:58:45.308Z,17.18
2018-08-19T02:59:49.829Z,17.18
2018-08-19T03:00:56.333Z,17.15
2018-08-19T03:02:00.865Z,17.08
2018-08-19T03:03:06.347Z,17.08
2018-08-19T03:04:12.895Z,17.13
2018-08-19T03:05:17.397Z,17.17
2018-08-19T03:06:23.918Z,17.15
2018-08-19T03:07:28.433Z,17.07
2018-08-19T03:08:33.937Z,17.08
2018-08-19T03:09:40.481Z,17.06
2018-08-19T03:10:44.997Z,17.06
2018-08-19T03:11:51.496Z,17.04
2018-08-19T03:12:56.014Z,17.10
2018-08-19T03:14:01.505Z,17.06
2018-08-19T03:15:08.126Z,17.03
2018-08-19T03:16:12.559Z,17.00
2018-08-19T03:17:19.078Z,17.00
2018-08-19T03:18:23.569Z,17.00
2018-08-19T03:19:29.080Z,17.04
2018-08-19T03:20:35.618Z,16.96
2018-08-19T03:21:40.118Z,17.03
2018-08-19T03:22:46.849Z,17.06
2018-08-19T03:23:51.158Z,17.03
2018-08-19T03:24:56.693Z,16.99
2018-08-19T03:26:03.182Z,16.99
2018-08-19T03:27:07.686Z,16.95
2018-08-19T03:28:14.200Z,16.90
2018-08-19T03:29:18.763Z,16.96
2018-08-19T03:30:24.225Z,16.89
2018-08-19T03:31:30.776Z,16.92
2018-08-19T03:32:35.250Z,16.93
2018-08-19T03:33:41.805Z,16.92
2018-08-19T03:34:46.337Z,16.93
2018-08-19T03:35:51.798Z,16.88
2018-08-19T03:36:58.341Z,16.80
2018-08-19T03:38:02.872Z,16.90
2018-08-19T03:39:09.365Z,16.85
2018-08-19T03:40:13.875Z,16.88
2018-08-19T03:41:19.394Z,16.90
2018-08-19T03:42:25.917Z,16.86
2018-08-19T03:43:30.418Z,16.77
2018-08-19T03:44:36.920Z,16.86
2018-08-19T03:45:41.419Z,16.83
2018-08-19T03:46:46.949Z,16.81
2018-08-19T03:47:53.463Z,16.88
2018-08-19T03:48:57.991Z,16.80
2018-08-19T03:50:04.506Z,16.85
2018-08-19T03:51:09.005Z,16.85
2018-08-19T03:52:14.512Z,16.80
2018-08-19T03:53:21.072Z,16.78
2018-08-19T03:54:25.567Z,16.80
2018-08-19T03:55:32.085Z,16.78
2018-08-19T03:56:36.587Z,16.80
2018-08-19T03:57:42.102Z,16.71
2018-08-19T03:58:48.635Z,16.81
2018-08-19T03:59:53.120Z,16.77
2018-08-19T04:00:59.672Z,16.73
2018-08-19T04:02:04.160Z,16.78
2018-08-19T04:03:09.676Z,16.74
2018-08-19T04:04:16.201Z,16.77
2018-08-19T04:05:20.702Z,16.77
2018-08-19T04:06:27.224Z,16.81
2018-08-19T04:07:31.724Z,16.85
2018-08-19T04:08:37.258Z,16.81
2018-08-19T04:09:43.786Z,16.85
2018-08-19T04:10:48.245Z,16.83
2018-08-19T04:11:54.800Z,16.81
2018-08-19T04:12:59.296Z,16.78
2018-08-19T04:14:04.820Z,16.86
2018-08-19T04:15:11.338Z,16.81
2018-08-19T04:16:15.846Z,16.83
2018-08-19T04:17:22.378Z,16.77
2018-08-19T04:18:26.861Z,16.78
2018-08-19T04:19:32.379Z,16.81
2018-08-19T04:20:38.916Z,16.80
2018-08-19T04:21:43.399Z,16.80
2018-08-19T04:22:49.958Z,16.77
2018-08-19T04:23:54.443Z,16.80
2018-08-19T04:24:59.943Z,16.86
2018-08-19T04:26:06.484Z,16.71
2018-08-19T04:27:10.991Z,16.81
2018-08-19T04:28:17.547Z,16.81
2018-08-19T04:29:22.027Z,16.92
2018-08-19T04:30:27.518Z,16.85
2018-08-19T04:31:34.068Z,16.86
2018-08-19T04:32:38.548Z,16.83
2018-08-19T04:33:45.100Z,16.85
2018-08-19T04:34:49.598Z,16.78
2018-08-19T04:35:55.096Z,16.86
2018-08-19T04:37:01.626Z,16.75
2018-08-19T04:38:06.119Z,16.85
2018-08-19T04:39:12.658Z,16.81
2018-08-19T04:40:17.167Z,16.78
2018-08-19T04:41:22.692Z,16.78
2018-08-19T04:42:29.188Z,16.80
2018-08-19T04:43:33.691Z,16.78
2018-08-19T04:44:40.233Z,16.65
2018-08-19T04:45:44.747Z,16.77
2018-08-19T04:46:50.245Z,16.70
2018-08-19T04:47:56.787Z,16.78
2018-08-19T04:49:01.284Z,16.77
2018-08-19T04:50:07.791Z,16.83
2018-08-19T04:51:12.308Z,16.77
2018-08-19T04:52:17.821Z,16.81
2018-08-19T04:53:24.351Z,16.70
2018-08-19T04:54:28.849Z,16.83
2018-08-19T04:55:35.379Z,16.75
2018-08-19T04:56:39.881Z,16.83
2018-08-19T04:57:45.395Z,16.78
2018-08-19T04:58:51.924Z,16.81
2018-08-19T04:59:56.423Z,16.83
2018-08-19T05:01:02.942Z,16.80
2018-08-19T05:02:07.514Z,16.75
2018-08-19T05:03:12.968Z,16.77
2018-08-19T05:04:19.507Z,16.78
2018-08-19T05:05:23.998Z,16.86
2018-08-19T05:06:30.519Z,16.96
2018-08-19T05:07:35.057Z,16.90
2018-08-19T05:08:40.552Z,16.95
2018-08-19T05:09:47.063Z,16.95
2018-08-19T05:10:51.561Z,16.95
2018-08-19T05:11:58.083Z,16.93
2018-08-19T05:13:02.596Z,16.92
2018-08-19T05:14:08.116Z,16.95
2018-08-19T05:15:14.659Z,17.00
2018-08-19T05:16:19.130Z,16.98
2018-08-19T05:17:25.658Z,16.96
2018-08-19T05:18:30.155Z,17.06
2018-08-19T05:19:35.696Z,17.03
2018-08-19T05:20:42.191Z,17.04
2018-08-19T05:21:46.736Z,17.14
2018-08-19T05:22:53.261Z,17.10
2018-08-19T05:23:57.749Z,17.20
2018-08-19T05:25:03.249Z,17.15
2018-08-19T05:26:09.784Z,17.20
2018-08-19T05:27:14.286Z,17.15
2018-08-19T05:28:20.838Z,17.13
2018-08-19T05:29:25.329Z,17.26
2018-08-19T05:30:30.840Z,17.28
2018-08-19T05:31:37.429Z,17.28
2018-08-19T05:32:41.842Z,17.20
2018-08-19T05:33:48.387Z,17.36
2018-08-19T05:34:52.890Z,17.35
2018-08-19T05:35:58.422Z,17.44
2018-08-19T05:37:04.914Z,17.36
2018-08-19T05:38:09.554Z,17.35
2018-08-19T05:39:15.968Z,17.43
2018-08-19T05:40:20.458Z,17.48
2018-08-19T05:41:25.979Z,17.48
2018-08-19T05:42:32.492Z,17.53
2018-08-19T05:43:37.006Z,17.64
2018-08-19T05:44:43.533Z,17.55
2018-08-19T05:45:48.027Z,17.54
2018-08-19T05:46:53.562Z,17.66
2018-08-19T05:48:00.069Z,17.69
2018-08-19T05:49:04.612Z,17.67
2018-08-19T05:50:11.103Z,17.70
2018-08-19T05:51:15.611Z,17.71
2018-08-19T05:52:21.123Z,17.76
2018-08-19T05:53:27.622Z,17.79
2018-08-19T05:54:32.139Z,17.82
2018-08-19T05:55:38.810Z,17.81
2018-08-19T05:56:43.895Z,17.88
2018-08-19T05:57:48.688Z,17.92
2018-08-19T05:58:55.223Z,17.99
2018-08-19T05:59:59.734Z,18.02
2018-08-19T06:01:06.293Z,17.97
2018-08-19T06:02:10.763Z,17.97
2018-08-19T06:03:16.287Z,17.95
2018-08-19T06:04:22.811Z,18.15
2018-08-19T06:05:27.307Z,18.17
2018-08-19T06:06:33.841Z,18.18
2018-08-19T06:07:38.388Z,18.24
2018-08-19T06:08:43.857Z,18.27
2018-08-19T06:09:50.369Z,18.28
2018-08-19T06:10:54.884Z,18.28
2018-08-19T06:12:01.417Z,18.34
2018-08-19T06:13:05.933Z,18.36
2018-08-19T06:14:11.446Z,18.47
2018-08-19T06:15:17.936Z,18.47
2018-08-19T06:16:22.446Z,18.49
2018-08-19T06:17:28.973Z,18.54
2018-08-19T06:18:33.457Z,18.58
2018-08-19T06:19:39.053Z,18.62
2018-08-19T06:20:45.518Z,18.55
2018-08-19T06:21:50.077Z,18.68
2018-08-19T06:22:56.546Z,18.64
2018-08-19T06:24:01.059Z,18.83
2018-08-19T06:25:06.576Z,18.77
2018-08-19T06:26:13.113Z,18.76
2018-08-19T06:27:17.601Z,18.83
2018-08-19T06:28:24.130Z,18.95
2018-08-19T06:29:28.635Z,18.95
2018-08-19T06:30:34.169Z,18.87
2018-08-19T06:31:40.686Z,18.94
2018-08-19T06:32:45.188Z,19.01
2018-08-19T06:33:51.726Z,19.06
2018-08-19T06:34:56.251Z,19.13
2018-08-19T06:36:01.744Z,19.14
2018-08-19T06:37:08.320Z,19.14
2018-08-19T06:38:12.780Z,19.15
2018-08-19T06:39:19.297Z,19.17
2018-08-19T06:40:23.821Z,19.28
2018-08-19T06:41:29.334Z,19.25
2018-08-19T06:42:35.834Z,19.29
2018-08-19T06:43:40.344Z,19.32
2018-08-19T06:44:46.873Z,19.31
2018-08-19T06:45:51.363Z,19.36
2018-08-19T06:46:56.896Z,19.38
2018-08-19T06:48:03.415Z,19.46
2018-08-19T06:49:07.904Z,19.42
2018-08-19T06:50:14.444Z,19.47
2018-08-19T06:51:19.048Z,19.47
2018-08-19T06:52:24.462Z,19.51
2018-08-19T06:53:30.992Z,19.48
2018-08-19T06:54:35.523Z,19.65
2018-08-19T06:55:42.046Z,19.55
2018-08-19T06:56:46.550Z,19.69
2018-08-19T06:57:52.092Z,19.65
2018-08-19T06:58:58.571Z,19.65
2018-08-19T07:00:03.091Z,19.70
2018-08-19T07:01:09.602Z,19.69
2018-08-19T07:02:14.107Z,19.76
2018-08-19T07:03:19.670Z,19.69
2018-08-19T07:04:26.152Z,19.88
2018-08-19T07:05:30.677Z,19.84
2018-08-19T07:06:37.203Z,19.79
2018-08-19T07:07:41.711Z,19.87
2018-08-19T07:08:47.204Z,19.94
2018-08-19T07:09:53.731Z,19.93
2018-08-19T07:10:58.242Z,19.93
2018-08-19T07:12:04.748Z,19.98
2018-08-19T07:13:09.290Z,20.03
2018-08-19T07:14:14.789Z,20.02
2018-08-19T07:15:21.349Z,20.08
2018-08-19T07:16:25.831Z,20.03
2018-08-19T07:17:32.335Z,20.13
2018-08-19T07:18:36.893Z,20.09
2018-08-19T07:19:42.363Z,20.09
2018-08-19T07:20:48.897Z,20.16
2018-08-19T07:21:53.419Z,20.18
2018-08-19T07:22:59.935Z,20.24
2018-08-19T07:24:04.437Z,20.31
2018-08-19T07:25:09.940Z,20.33
2018-08-19T07:26:16.485Z,20.43
2018-08-19T07:27:20.998Z,20.35
2018-08-19T07:28:27.497Z,20.49
2018-08-19T07:29:32.060Z,20.54
2018-08-19T07:30:37.550Z,20.58
2018-08-19T07:31:44.913Z,20.51
2018-08-19T07:32:48.594Z,20.65
2018-08-19T07:33:55.110Z,20.68
2018-08-19T07:34:59.606Z,20.66
2018-08-19T07:36:05.121Z,20.74
2018-08-19T07:37:11.727Z,20.74
2018-08-19T07:38:16.161Z,20.77
2018-08-19T07:39:22.687Z,20.79
2018-08-19T07:40:27.175Z,20.77
2018-08-19T07:41:32.713Z,20.91
2018-08-19T07:42:39.254Z,20.87
2018-08-19T07:43:43.799Z,20.93
2018-08-19T07:44:50.274Z,20.99
2018-08-19T07:45:54.793Z,20.96
2018-08-19T07:47:00.286Z,21.08
2018-08-19T07:48:06.820Z,21.13
2018-08-19T07:49:11.314Z,21.11
2018-08-19T07:50:17.828Z,21.20
2018-08-19T07:51:22.361Z,21.30
2018-08-19T07:52:27.866Z,21.21
2018-08-19T07:53:34.392Z,21.27
2018-08-19T07:54:38.912Z,21.36
2018-08-19T07:55:45.459Z,21.34
2018-08-19T07:56:49.922Z,21.30
2018-08-19T07:57:55.464Z,21.42
2018-08-19T07:59:02.012Z,21.41
2018-08-19T08:00:06.501Z,21.41
2018-08-19T08:01:13.048Z,21.42
2018-08-19T08:02:17.525Z,21.44
2018-08-19T08:03:23.055Z,21.50
2018-08-19T08:04:29.599Z,21.46
2018-08-19T08:05:34.068Z,21.53
2018-08-19T08:06:40.593Z,21.54
2018-08-19T08:07:45.096Z,21.59
2018-08-19T08:08:50.624Z,21.56
2018-08-19T08:09:57.170Z,21.63
2018-08-19T08:11:01.700Z,21.69
2018-08-19T08:12:08.190Z,21.75
2018-08-19T08:13:12.714Z,21.74
2018-08-19T08:14:18.218Z,21.79
2018-08-19T08:15:24.745Z,21.82
2018-08-19T08:16:29.231Z,21.83
2018-08-19T08:17:35.787Z,21.85
2018-08-19T08:18:40.316Z,21.90
2018-08-19T08:19:45.791Z,21.98
2018-08-19T08:20:52.358Z,21.94
2018-08-19T08:21:56.814Z,21.98
2018-08-19T08:23:03.370Z,22.02
2018-08-19T08:24:07.910Z,22.06
2018-08-19T08:25:13.394Z,22.07
2018-08-19T08:26:19.939Z,22.16
2018-08-19T08:27:24.403Z,22.23
2018-08-19T08:28:30.956Z,22.23
2018-08-19T08:29:35.513Z,22.20
2018-08-19T08:30:40.998Z,22.34
2018-08-19T08:31:47.562Z,22.32
2018-08-19T08:32:51.997Z,22.37
2018-08-19T08:33:58.538Z,22.29
2018-08-19T08:35:03.052Z,22.41
2018-08-19T08:36:08.571Z,22.39
2018-08-19T08:37:15.096Z,22.39
2018-08-19T08:38:19.589Z,22.47
2018-08-19T08:39:26.152Z,22.44
2018-08-19T08:40:30.691Z,22.59
2018-08-19T08:41:36.150Z,22.56
2018-08-19T08:42:42.679Z,22.56
2018-08-19T08:43:47.174Z,22.59
2018-08-19T08:44:53.740Z,22.68
2018-08-19T08:45:58.224Z,22.67
2018-08-19T08:47:03.737Z,22.71
2018-08-19T08:48:10.263Z,22.69
2018-08-19T08:49:14.772Z,22.67
2018-08-19T08:50:21.325Z,22.77
2018-08-19T08:51:25.803Z,22.80
2018-08-19T08:52:31.333Z,22.84
2018-08-19T08:53:37.862Z,22.80
2018-08-19T08:54:42.371Z,22.89
2018-08-19T08:55:48.899Z,22.94
2018-08-19T08:56:53.396Z,22.92
2018-08-19T08:57:58.906Z,22.96
2018-08-19T08:59:05.433Z,22.94
2018-08-19T09:00:09.939Z,22.99
2018-08-19T09:01:16.501Z,23.12
2018-08-19T09:02:20.989Z,23.07
2018-08-19T09:03:26.509Z,23.07
2018-08-19T09:04:33.075Z,23.05
2018-08-19T09:05:37.544Z,22.99
2018-08-19T09:06:44.066Z,23.05
2018-08-19T09:07:48.575Z,23.05
2018-08-19T09:08:54.095Z,23.09
2018-08-19T09:10:00.615Z,23.04
2018-08-19T09:11:05.131Z,22.97
2018-08-19T09:12:11.708Z,22.87
2018-08-19T09:13:16.176Z,22.92
2018-08-19T09:14:21.681Z,22.90
2018-08-19T09:15:28.214Z,22.87
2018-08-19T09:16:32.716Z,22.90
2018-08-19T09:17:39.310Z,22.97
2018-08-19T09:18:43.771Z,22.96
2018-08-19T09:19:49.274Z,22.92
2018-08-19T09:20:55.802Z,23.04
2018-08-19T09:22:00.317Z,23.07
2018-08-19T09:23:06.912Z,23.09
2018-08-19T09:24:11.340Z,23.15
2018-08-19T09:25:16.870Z,23.19
2018-08-19T09:26:23.415Z,23.27
2018-08-19T09:27:27.891Z,23.23
2018-08-19T09:28:34.442Z,23.27
2018-08-19T09:29:38.927Z,23.29
2018-08-19T09:30:44.464Z,23.32
2018-08-19T09:31:50.989Z,23.42
2018-08-19T09:32:56.249Z,23.42
2018-08-19T09:34:02.025Z,23.47
2018-08-19T09:35:06.521Z,23.52
2018-08-19T09:36:12.030Z,23.61
2018-08-19T09:37:18.596Z,23.55
2018-08-19T09:38:23.111Z,23.71
2018-08-19T09:39:29.600Z,23.60
2018-08-19T09:40:34.152Z,23.70
2018-08-19T09:41:39.642Z,23.65
2018-08-19T09:42:46.158Z,23.79
2018-08-19T09:43:50.686Z,23.75
2018-08-19T09:44:57.229Z,23.90
2018-08-19T09:46:01.754Z,23.97
2018-08-19T09:47:07.213Z,24.04
2018-08-19T09:48:13.779Z,24.08
2018-08-19T09:49:18.238Z,24.29
2018-08-19T09:50:24.835Z,24.29
2018-08-19T09:51:29.278Z,24.41
2018-08-19T09:52:34.805Z,24.49
2018-08-19T09:53:41.355Z,24.42
2018-08-19T09:54:45.871Z,24.44
2018-08-19T09:55:52.397Z,24.59
2018-08-19T09:56:56.894Z,24.60
2018-08-19T09:58:02.384Z,24.57
2018-08-19T09:59:08.954Z,24.63
2018-08-19T10:00:13.479Z,24.77
2018-08-19T10:01:19.966Z,24.73
2018-08-19T10:02:24.447Z,24.87
2018-08-19T10:03:30.018Z,24.75
2018-08-19T10:04:36.532Z,24.79
2018-08-19T10:05:41.042Z,24.75
2018-08-19T10:06:47.610Z,24.69
2018-08-19T10:07:52.105Z,24.67
2018-08-19T10:08:57.572Z,24.77
2018-08-19T10:10:04.148Z,24.71
2018-08-19T10:11:08.646Z,24.83
2018-08-19T10:12:15.170Z,24.77
2018-08-19T10:13:19.671Z,24.76
2018-08-19T10:14:25.194Z,24.83
2018-08-19T10:15:31.714Z,24.79
2018-08-19T10:16:36.210Z,24.82
2018-08-19T10:17:42.852Z,24.76
2018-08-19T10:18:47.293Z,24.80
2018-08-19T10:19:52.816Z,24.79
2018-08-19T10:20:59.327Z,24.79
2018-08-19T10:22:03.830Z,24.77
2018-08-19T10:23:10.356Z,24.69
2018-08-19T10:24:14.843Z,24.76
2018-08-19T10:25:20.372Z,24.77
2018-08-19T10:26:26.940Z,24.87
2018-08-19T10:27:31.384Z,24.87
2018-08-19T10:28:37.948Z,24.87
2018-08-19T10:29:42.427Z,24.92
2018-08-19T10:30:47.958Z,24.92
2018-08-19T10:31:54.494Z,24.90
2018-08-19T10:32:59.028Z,25.02
2018-08-19T10:34:05.552Z,25.00
2018-08-19T10:35:10.053Z,25.02
2018-08-19T10:36:15.569Z,25.16
2018-08-19T10:37:22.099Z,25.16
2018-08-19T10:38:26.664Z,25.27
2018-08-19T10:39:33.145Z,25.25
2018-08-19T10:40:37.672Z,25.28
2018-08-19T10:41:43.179Z,25.32
2018-08-19T10:42:49.698Z,25.37
2018-08-19T10:43:54.200Z,25.35
2018-08-19T10:45:00.732Z,25.43
2018-08-19T10:46:05.213Z,25.44
2018-08-19T10:47:10.746Z,25.53
2018-08-19T10:48:20.132Z,25.52
2018-08-19T10:49:21.792Z,25.62
2018-08-19T10:50:28.344Z,25.71
2018-08-19T10:51:32.840Z,25.71
2018-08-19T10:52:38.362Z,25.84
2018-08-19T10:53:44.894Z,25.84
2018-08-19T10:54:49.379Z,25.89
2018-08-19T10:55:55.948Z,25.90
2018-08-19T10:57:00.415Z,25.89
2018-08-19T10:58:05.961Z,25.90
2018-08-19T10:59:12.496Z,25.89
2018-08-19T11:00:16.992Z,25.90
2018-08-19T11:01:23.533Z,25.94
2018-08-19T11:02:28.049Z,26.05
2018-08-19T11:03:33.552Z,25.97
2018-08-19T11:04:40.076Z,25.94
2018-08-19T11:05:44.601Z,26.04
2018-08-19T11:06:51.149Z,26.04
2018-08-19T11:07:55.619Z,25.98
2018-08-19T11:09:01.164Z,25.93
2018-08-19T11:10:07.663Z,26.09
2018-08-19T11:11:12.168Z,25.99
2018-08-19T11:12:18.746Z,26.11
2018-08-19T11:13:23.289Z,26.09
2018-08-19T11:14:28.745Z,26.11
2018-08-19T11:15:35.282Z,26.22
2018-08-19T11:16:39.814Z,26.18
2018-08-19T11:17:46.323Z,26.24
2018-08-19T11:18:50.818Z,26.27
2018-08-19T11:19:56.339Z,26.28
2018-08-19T11:21:02.976Z,26.29
2018-08-19T11:22:07.365Z,26.37
2018-08-19T11:23:13.964Z,26.36
2018-08-19T11:24:18.443Z,26.43
2018-08-19T11:25:23.959Z,26.50
2018-08-19T11:26:30.552Z,26.50
2018-08-19T11:27:35.005Z,26.52
2018-08-19T11:28:41.510Z,26.61
2018-08-19T11:29:46.015Z,26.44
2018-08-19T11:30:51.538Z,26.52
2018-08-19T11:31:58.068Z,26.67
2018-08-19T11:33:02.560Z,26.58
2018-08-19T11:34:09.123Z,26.62
2018-08-19T11:35:13.672Z,26.68
2018-08-19T11:36:19.155Z,26.79
2018-08-19T11:37:25.675Z,26.83
2018-08-19T11:38:30.195Z,26.81
2018-08-19T11:39:36.705Z,26.84
2018-08-19T11:40:41.205Z,26.79
2018-08-19T11:41:46.754Z,26.80
2018-08-19T11:42:53.277Z,26.79
2018-08-19T11:43:57.791Z,26.79
2018-08-19T11:45:04.328Z,26.84
2018-08-19T11:46:08.845Z,26.89
2018-08-19T11:47:14.345Z,26.99
2018-08-19T11:48:20.873Z,27.05
2018-08-19T11:49:25.388Z,27.17
2018-08-19T11:50:31.900Z,27.21
2018-08-19T11:51:36.449Z,27.21
2018-08-19T11:52:41.970Z,27.20
2018-08-19T11:53:48.473Z,27.19
2018-08-19T11:54:52.991Z,27.14
2018-08-19T11:55:59.533Z,27.21
2018-08-19T11:57:04.045Z,27.23
2018-08-19T11:58:09.553Z,27.21
2018-08-19T11:59:16.057Z,27.31
2018-08-19T12:00:20.605Z,27.32
2018-08-19T12:01:27.117Z,27.36
2018-08-19T12:02:31.630Z,27.42
2018-08-19T12:03:37.184Z,27.42
2018-08-19T12:04:43.710Z,27.47
2018-08-19T12:05:48.186Z,27.48
2018-08-19T12:06:54.712Z,27.53
2018-08-19T12:07:59.257Z,27.59
2018-08-19T12:09:04.776Z,27.54
2018-08-19T12:10:11.293Z,27.67
2018-08-19T12:11:15.797Z,27.71
2018-08-19T12:12:22.324Z,27.66
2018-08-19T12:13:26.823Z,27.71
2018-08-19T12:14:32.385Z,27.69
2018-08-19T12:15:38.896Z,27.64
2018-08-19T12:16:43.423Z,27.59
2018-08-19T12:17:49.974Z,27.66
2018-08-19T12:18:54.447Z,27.66
2018-08-19T12:19:59.975Z,27.67
2018-08-19T12:21:06.515Z,27.69
2018-08-19T12:22:11.040Z,27.64
2018-08-19T12:23:17.548Z,27.67
2018-08-19T12:24:22.069Z,27.69
2018-08-19T12:25:27.618Z,27.57
2018-08-19T12:26:34.114Z,27.53
2018-08-19T12:27:38.735Z,27.58
2018-08-19T12:28:45.146Z,27.69
2018-08-19T12:29:49.675Z,27.64
2018-08-19T12:30:55.176Z,27.74
2018-08-19T12:32:01.688Z,27.80
2018-08-19T12:33:06.205Z,27.70
2018-08-19T12:34:12.780Z,27.73
2018-08-19T12:35:17.269Z,27.74
2018-08-19T12:36:22.776Z,27.76
2018-08-19T12:37:29.287Z,27.79
2018-08-19T12:38:33.807Z,27.79
2018-08-19T12:39:40.337Z,27.74
2018-08-19T12:40:44.867Z,27.85
2018-08-19T12:41:50.411Z,27.80
2018-08-19T12:42:57.761Z,27.80
2018-08-19T12:44:01.424Z,27.86
2018-08-19T12:45:07.987Z,27.79
2018-08-19T12:46:12.508Z,27.79
2018-08-19T12:47:18.012Z,27.80
2018-08-19T12:48:24.509Z,27.82
2018-08-19T12:49:29.031Z,27.77
2018-08-19T12:50:35.571Z,27.80
2018-08-19T12:51:40.080Z,27.82
2018-08-19T12:52:45.594Z,27.88
2018-08-19T12:53:52.115Z,27.79
2018-08-19T12:54:56.648Z,27.84
2018-08-19T12:56:03.169Z,27.84
2018-08-19T12:57:07.662Z,27.91
2018-08-19T12:58:13.185Z,27.96
2018-08-19T12:59:19.725Z,27.91
2018-08-19T13:00:24.227Z,27.85
2018-08-19T13:01:30.776Z,27.91
2018-08-19T13:02:35.317Z,27.85
2018-08-19T13:03:40.807Z,27.82
2018-08-19T13:04:47.326Z,27.94
2018-08-19T13:05:51.872Z,27.85
2018-08-19T13:06:58.396Z,27.88
2018-08-19T13:08:02.935Z,27.79
2018-08-19T13:09:08.417Z,27.85
2018-08-19T13:10:14.946Z,27.88
2018-08-19T13:11:19.433Z,27.77
2018-08-19T13:12:26.017Z,27.77
2018-08-19T13:13:30.482Z,27.88
2018-08-19T13:14:35.988Z,27.85
2018-08-19T13:15:42.532Z,27.85
2018-08-19T13:16:47.045Z,27.80
2018-08-19T13:17:53.593Z,27.73
2018-08-19T13:18:58.137Z,27.76
2018-08-19T13:20:03.611Z,27.74
2018-08-19T13:21:10.182Z,27.76
2018-08-19T13:22:14.671Z,27.74
2018-08-19T13:23:21.245Z,27.66
2018-08-19T13:24:25.707Z,27.69
2018-08-19T13:25:31.222Z,27.67
2018-08-19T13:26:37.745Z,27.69
2018-08-19T13:27:42.252Z,27.70
2018-08-19T13:28:48.803Z,27.59
2018-08-19T13:29:53.338Z,27.59
2018-08-19T13:30:58.824Z,27.61
2018-08-19T13:32:05.388Z,27.66
2018-08-19T13:33:09.859Z,27.70
2018-08-19T13:34:16.442Z,27.80
2018-08-19T13:35:20.913Z,27.73
2018-08-19T13:36:26.442Z,27.79
2018-08-19T13:37:32.937Z,27.84
2018-08-19T13:38:37.439Z,27.84
2018-08-19T13:39:44.022Z,27.88
2018-08-19T13:40:48.515Z,27.89
2018-08-19T13:41:54.017Z,27.96
2018-08-19T13:43:00.565Z,27.95
2018-08-19T13:44:05.083Z,27.98
2018-08-19T13:45:11.627Z,28.01
2018-08-19T13:46:16.127Z,27.95
2018-08-19T13:47:21.704Z,27.98
2018-08-19T13:48:28.193Z,27.80
2018-08-19T13:49:32.697Z,27.84
2018-08-19T13:50:39.216Z,27.85
2018-08-19T13:51:43.718Z,27.80
2018-08-19T13:52:49.270Z,27.82
2018-08-19T13:53:55.753Z,27.77
2018-08-19T13:55:00.280Z,27.76
2018-08-19T13:56:06.838Z,27.85
2018-08-19T13:57:11.369Z,27.79
2018-08-19T13:58:16.854Z,27.79
2018-08-19T13:59:23.375Z,27.79
2018-08-19T14:00:27.880Z,27.77
2018-08-19T14:01:34.436Z,27.74
2018-08-19T14:02:38.918Z,27.73
2018-08-19T14:03:44.451Z,27.79